createdAt,value
2022-10-25T00:01:05.559Z,0
2022-10-25T00:02:19.958Z,0
2022-10-25T00:03:34.281Z,0
2022-10-25T00:04:48.581Z,0
2022-10-25T00:06:02.843Z,0
2022-10-25T00:08:31.575Z,0
2022-10-25T00:09:45.863Z,0
2022-10-25T00:11:00.140Z,0
2022-10-25T00:12:14.551Z,0
2022-10-25T00:13:28.880Z,0
2022-10-25T00:14:43.148Z,0
2022-10-25T00:15:57.490Z,0
2022-10-25T00:17:11.908Z,0
2022-10-25T00:18:26.243Z,0
2022-10-25T00:19:39.594Z,0
2022-10-25T00:20:53.861Z,0
2022-10-25T00:22:08.269Z,0
2022-10-25T00:23:22.602Z,0
2022-10-25T00:24:36.886Z,0
2022-10-25T00:25:51.161Z,0
2022-10-25T00:27:05.577Z,0
2022-10-25T00:28:19.889Z,0
2022-10-25T00:29:34.179Z,0
2022-10-25T00:30:48.449Z,0
2022-10-25T00:32:02.868Z,0
2022-10-25T00:33:17.181Z,0
2022-10-25T00:34:31.472Z,0
2022-10-25T00:35:45.753Z,0
2022-10-25T00:37:00.160Z,0
2022-10-25T00:38:14.466Z,0
2022-10-25T00:39:28.758Z,0
2022-10-25T00:40:43.039Z,0
2022-10-25T00:41:57.441Z,0
2022-10-25T00:43:11.763Z,0
2022-10-25T00:44:26.055Z,0
2022-10-25T00:45:40.323Z,0
2022-10-25T00:46:54.743Z,0
2022-10-25T00:48:09.058Z,0
2022-10-25T00:49:23.338Z,0
2022-10-25T00:50:37.671Z,0
2022-10-25T00:51:52.075Z,0
2022-10-25T00:53:06.423Z,0
2022-10-25T00:54:19.778Z,0
2022-10-25T00:55:34.053Z,0
2022-10-25T00:56:48.451Z,0
2022-10-25T00:58:02.782Z,0
2022-10-25T00:59:17.056Z,0
2022-10-25T01:00:31.349Z,0
2022-10-25T01:01:45.741Z,0
2022-10-25T01:03:00.067Z,0
2022-10-25T01:04:14.358Z,0
2022-10-25T01:05:28.631Z,0
2022-10-25T01:07:57.370Z,0
2022-10-25T01:09:11.653Z,0
2022-10-25T01:10:25.924Z,0
2022-10-25T01:11:40.324Z,0
2022-10-25T01:12:54.658Z,0
2022-10-25T01:14:08.945Z,0
2022-10-25T01:15:23.226Z,0
2022-10-25T01:16:37.631Z,0
2022-10-25T01:17:51.946Z,0
2022-10-25T01:19:06.219Z,0
2022-10-25T01:20:20.514Z,0
2022-10-25T01:21:34.924Z,0
2022-10-25T01:22:49.247Z,0
2022-10-25T01:24:03.522Z,0
2022-10-25T01:25:17.855Z,0
2022-10-25T01:26:32.276Z,0
2022-10-25T01:27:46.611Z,0
2022-10-25T01:28:59.943Z,0
2022-10-25T01:30:14.226Z,0
2022-10-25T01:31:28.649Z,0
2022-10-25T01:32:42.955Z,0
2022-10-25T01:33:57.248Z,0
2022-10-25T01:35:11.527Z,0
2022-10-25T01:36:25.932Z,0
2022-10-25T01:37:40.252Z,0
2022-10-25T01:38:54.530Z,0
2022-10-25T01:40:08.815Z,0
2022-10-25T01:41:23.224Z,0
2022-10-25T01:42:37.550Z,0
2022-10-25T01:43:51.825Z,0
2022-10-25T01:45:06.101Z,0
2022-10-25T01:46:20.520Z,0
2022-10-25T01:47:34.837Z,0
2022-10-25T01:48:49.123Z,0
2022-10-25T01:50:03.395Z,0
2022-10-25T01:51:17.799Z,0
2022-10-25T01:52:32.133Z,0
2022-10-25T01:53:46.405Z,0
2022-10-25T02:22:17.042Z,0
2022-10-25T02:23:30.529Z,0
2022-10-25T02:24:44.920Z,0
2022-10-25T02:25:59.263Z,0
2022-10-25T02:27:12.619Z,0
2022-10-25T02:28:26.886Z,0
2022-10-25T02:29:41.299Z,0
2022-10-25T02:30:55.000Z,0
2022-10-25T02:32:09.902Z,0
2022-10-25T02:33:24.189Z,0
2022-10-25T02:34:38.591Z,0
2022-10-25T02:35:52.914Z,0
2022-10-25T02:37:07.199Z,0
2022-10-25T02:38:21.478Z,0
2022-10-25T02:39:35.891Z,0
2022-10-25T02:40:50.217Z,0
2022-10-25T02:42:04.495Z,0
2022-10-25T02:43:18.773Z,0
2022-10-25T02:44:33.170Z,0
2022-10-25T02:45:47.496Z,0
2022-10-25T02:47:01.788Z,0
2022-10-25T02:48:16.065Z,0
2022-10-25T02:49:30.469Z,0
2022-10-25T02:50:44.799Z,0
2022-10-25T02:51:59.067Z,0
2022-10-25T02:53:13.344Z,0
2022-10-25T02:54:27.766Z,0
2022-10-25T02:55:42.084Z,0
2022-10-25T02:56:56.364Z,0
2022-10-25T02:58:10.707Z,0
2022-10-25T02:59:25.105Z,0
2022-10-25T03:00:39.439Z,0
2022-10-25T03:01:52.798Z,0
2022-10-25T03:03:07.080Z,0
2022-10-25T03:04:21.493Z,0
2022-10-25T03:05:35.813Z,0
2022-10-25T03:06:50.092Z,0
2022-10-25T03:08:04.364Z,0
2022-10-25T03:09:18.774Z,0
2022-10-25T03:10:33.090Z,0
2022-10-25T03:11:47.374Z,0
2022-10-25T03:13:01.668Z,0
2022-10-25T03:14:16.067Z,0
2022-10-25T03:15:30.394Z,0
2022-10-25T03:16:44.667Z,0
2022-10-25T03:17:58.947Z,0
2022-10-25T03:19:13.353Z,0
2022-10-25T03:20:27.686Z,0
2022-10-25T03:21:41.961Z,0
2022-10-25T03:22:56.241Z,0
2022-10-25T03:24:10.658Z,0
2022-10-25T03:25:24.972Z,0
2022-10-25T03:26:39.256Z,0
2022-10-25T03:27:53.535Z,0
2022-10-25T03:29:07.942Z,0
2022-10-25T03:30:22.261Z,0
2022-10-25T03:31:36.536Z,0
2022-10-25T03:32:50.892Z,0
2022-10-25T03:34:05.287Z,0
2022-10-25T03:35:19.632Z,0
2022-10-25T03:36:32.988Z,0
2022-10-25T03:37:47.254Z,0
2022-10-25T03:39:01.675Z,0
2022-10-25T03:40:15.984Z,0
2022-10-25T03:42:44.542Z,0
2022-10-25T03:43:58.951Z,0
2022-10-25T03:45:13.285Z,0
2022-10-25T03:46:27.568Z,0
2022-10-25T03:47:41.839Z,0
2022-10-25T03:48:56.246Z,0
2022-10-25T03:50:10.580Z,0
2022-10-25T03:51:24.847Z,0
2022-10-25T03:52:39.138Z,0
2022-10-25T03:53:53.545Z,0
2022-10-25T03:55:07.858Z,0
2022-10-25T03:56:22.153Z,0
2022-10-25T03:57:36.417Z,0
2022-10-25T03:58:50.823Z,0
2022-10-25T04:00:05.165Z,0
2022-10-25T04:01:19.432Z,0
2022-10-25T04:02:33.709Z,0
2022-10-25T04:05:02.442Z,0
2022-10-25T04:06:16.728Z,0
2022-10-25T04:07:31.060Z,0
2022-10-25T04:08:45.480Z,0
2022-10-25T04:09:59.804Z,0
2022-10-25T04:11:13.161Z,0
2022-10-25T04:12:27.448Z,0
2022-10-25T04:13:41.850Z,0
2022-10-25T04:14:56.166Z,0
2022-10-25T04:16:10.461Z,0
2022-10-25T04:17:24.727Z,0
2022-10-25T04:18:39.132Z,0
2022-10-25T04:19:53.456Z,0
2022-10-25T04:21:07.738Z,0
2022-10-25T04:22:22.028Z,0
2022-10-25T04:23:36.431Z,0
2022-10-25T04:24:50.751Z,0
2022-10-25T04:26:05.035Z,0
2022-10-25T04:27:19.307Z,0
2022-10-25T04:28:33.727Z,0
2022-10-25T04:29:48.046Z,0
2022-10-25T04:31:02.325Z,0
2022-10-25T04:32:16.599Z,0
2022-10-25T04:33:31.016Z,0
2022-10-25T04:34:45.336Z,0
2022-10-25T04:35:59.617Z,0
2022-10-25T04:37:13.908Z,0
2022-10-25T04:38:28.298Z,0
2022-10-25T04:39:42.627Z,0
2022-10-25T04:40:56.911Z,0
2022-10-25T04:42:11.261Z,0
2022-10-25T04:43:25.654Z,0
2022-10-25T04:44:39.988Z,0
2022-10-25T04:45:53.335Z,0
2022-10-25T04:47:07.627Z,0
2022-10-25T04:48:22.027Z,0
2022-10-25T04:49:36.347Z,0
2022-10-25T04:50:50.639Z,0
2022-10-25T04:52:04.911Z,0
2022-10-25T04:53:19.318Z,0
2022-10-25T04:54:33.648Z,0
2022-10-25T04:55:47.920Z,0
2022-10-25T04:57:02.213Z,0
2022-10-25T04:58:16.619Z,0
2022-10-25T04:59:30.933Z,0
2022-10-25T05:00:45.211Z,0
2022-10-25T05:01:59.492Z,0
2022-10-25T05:03:13.913Z,0
2022-10-25T05:04:28.226Z,0
2022-10-25T05:05:42.520Z,0
2022-10-25T05:06:56.789Z,0
2022-10-25T05:08:11.193Z,0
2022-10-25T05:09:25.526Z,0
2022-10-25T05:10:39.808Z,0
2022-10-25T05:11:54.078Z,0
2022-10-25T05:13:08.482Z,0
2022-10-25T05:14:22.819Z,0
2022-10-25T05:15:37.101Z,0
2022-10-25T05:16:51.436Z,0
2022-10-25T05:18:05.839Z,0
2022-10-25T05:19:20.176Z,0
2022-10-25T05:20:33.535Z,0
2022-10-25T05:21:47.799Z,0
2022-10-25T05:23:02.222Z,0
2022-10-25T05:24:16.546Z,0
2022-10-25T05:25:30.823Z,0
2022-10-25T05:26:45.096Z,0
2022-10-25T05:27:59.502Z,0
2022-10-25T05:29:13.821Z,0
2022-10-25T05:31:42.388Z,0
2022-10-25T05:32:56.796Z,0
2022-10-25T05:34:11.038Z,1
2022-10-25T05:36:39.486Z,1
2022-10-25T05:37:53.726Z,1
2022-10-25T05:39:08.073Z,0
2022-10-25T05:40:22.401Z,0
2022-10-25T05:41:36.621Z,2
2022-10-25T05:42:50.841Z,1
2022-10-25T05:44:05.070Z,2
2022-10-25T05:45:19.429Z,1
2022-10-25T05:46:33.669Z,1
2022-10-25T05:47:47.907Z,1
2022-10-25T05:49:02.126Z,6
2022-10-25T05:50:16.357Z,3
2022-10-25T05:51:30.718Z,9
2022-10-25T05:52:44.989Z,8
2022-10-25T05:53:59.286Z,12
2022-10-25T05:55:12.633Z,13
2022-10-25T05:56:26.938Z,17
2022-10-25T05:57:41.215Z,24
2022-10-25T05:58:54.512Z,31
2022-10-25T06:00:08.727Z,32
2022-10-25T06:01:23.036Z,41
2022-10-25T06:02:37.267Z,46
2022-10-25T06:03:51.502Z,63
2022-10-25T06:05:05.721Z,71
2022-10-25T06:06:19.961Z,78
2022-10-25T06:07:34.252Z,91
2022-10-25T06:08:48.492Z,100
2022-10-25T06:10:02.726Z,121
2022-10-25T06:12:31.170Z,142
2022-10-25T06:14:59.712Z,163
2022-10-25T06:16:13.940Z,173
2022-10-25T06:17:28.165Z,188
2022-10-25T06:18:42.388Z,193
2022-10-25T06:19:56.703Z,209
2022-10-25T06:21:10.000Z,234
2022-10-25T06:22:25.154Z,257
2022-10-25T06:23:39.395Z,282
2022-10-25T06:24:53.611Z,292
2022-10-25T06:26:07.911Z,315
2022-10-25T06:27:22.164Z,342
2022-10-25T06:28:36.389Z,364
2022-10-25T06:29:50.659Z,392
2022-10-25T06:31:03.963Z,407
2022-10-25T06:32:18.198Z,428
2022-10-25T06:33:32.429Z,443
2022-10-25T06:34:46.654Z,467
2022-10-25T06:36:00.890Z,486
2022-10-25T06:37:15.187Z,509
2022-10-25T06:39:43.649Z,551
2022-10-25T06:40:57.880Z,566
2022-10-25T06:42:12.097Z,571
2022-10-25T06:43:26.403Z,583
2022-10-25T06:44:40.650Z,589
2022-10-25T06:45:54.878Z,629
2022-10-25T06:47:09.107Z,686
2022-10-25T06:48:23.317Z,699
2022-10-25T06:49:37.628Z,788
2022-10-25T06:50:51.865Z,760
2022-10-25T06:52:06.098Z,759
2022-10-25T06:53:20.329Z,789
2022-10-25T06:55:48.854Z,813
2022-10-25T06:57:03.077Z,831
2022-10-25T06:58:17.307Z,849
2022-10-25T06:59:31.537Z,893
2022-10-25T07:00:45.758Z,923
2022-10-25T07:02:00.116Z,980
2022-10-25T07:03:14.399Z,998
2022-10-25T07:04:27.704Z,1065
2022-10-25T07:05:41.935Z,1124
2022-10-25T07:06:56.234Z,1151
2022-10-25T07:08:10.480Z,1167
2022-10-25T07:09:24.710Z,1219
2022-10-25T07:10:38.922Z,1240
2022-10-25T07:11:53.152Z,1297
2022-10-25T07:13:07.459Z,1370
2022-10-25T07:14:21.689Z,1419
2022-10-25T07:15:35.916Z,1493
2022-10-25T07:16:50.147Z,1480
2022-10-25T07:18:04.385Z,1484
2022-10-25T07:19:18.685Z,1441
2022-10-25T07:20:32.912Z,1421
2022-10-25T07:21:47.141Z,1856
2022-10-25T07:23:01.366Z,1421
2022-10-25T07:24:15.604Z,1404
2022-10-25T07:25:29.890Z,1265
2022-10-25T07:26:44.139Z,958
2022-10-25T07:29:12.601Z,779
2022-10-25T07:30:26.820Z,815
2022-10-25T07:31:41.122Z,874
2022-10-25T07:32:55.365Z,1081
2022-10-25T07:34:09.592Z,1205
2022-10-25T07:35:23.865Z,1353
2022-10-25T07:36:37.214Z,1169
2022-10-25T07:37:51.496Z,1775
2022-10-25T07:39:04.775Z,1789
2022-10-25T07:40:19.004Z,1615
2022-10-25T07:41:33.316Z,1852
2022-10-25T07:42:47.541Z,3065
2022-10-25T07:44:01.775Z,2718
2022-10-25T07:45:16.000Z,2603
2022-10-25T07:46:30.228Z,2599
2022-10-25T07:47:44.520Z,2477
2022-10-25T07:48:58.770Z,2349
2022-10-25T07:50:13.005Z,2570
2022-10-25T07:52:41.000Z,3814
2022-10-25T07:53:55.753Z,3680
2022-10-25T07:55:09.995Z,2517
2022-10-25T07:56:24.224Z,2541
2022-10-25T07:57:38.436Z,2823
2022-10-25T07:58:52.673Z,2647
2022-10-25T08:00:06.967Z,3312
2022-10-25T08:01:21.201Z,2952
2022-10-25T08:02:35.433Z,2852
2022-10-25T08:03:49.665Z,1997
2022-10-25T08:05:03.890Z,1916
2022-10-25T08:06:18.192Z,2097
2022-10-25T08:07:32.424Z,2477
2022-10-25T08:08:46.667Z,1968
2022-10-25T08:10:00.948Z,1795
2022-10-25T08:11:14.272Z,1697
2022-10-25T08:12:28.565Z,2002
2022-10-25T08:13:41.908Z,2227
2022-10-25T08:16:09.525Z,2414
2022-10-25T08:17:22.811Z,2305
2022-10-25T08:18:37.044Z,2383
2022-10-25T08:19:51.340Z,2557
2022-10-25T08:21:05.595Z,2368
2022-10-25T08:22:19.822Z,2296
2022-10-25T08:23:34.049Z,2466
2022-10-25T08:24:48.273Z,2660
2022-10-25T08:26:02.569Z,3289
2022-10-25T08:27:16.810Z,3043
2022-10-25T08:28:31.044Z,2974
2022-10-25T08:29:45.264Z,3043
2022-10-25T08:30:59.485Z,2278
2022-10-25T08:32:13.781Z,1710
2022-10-25T08:33:28.035Z,2337
2022-10-25T08:35:56.494Z,3727
2022-10-25T08:37:10.703Z,4200
2022-10-25T08:38:25.003Z,4112
2022-10-25T08:39:39.245Z,5784
2022-10-25T08:40:53.473Z,4796
2022-10-25T08:42:07.698Z,4602
2022-10-25T08:43:21.931Z,4240
2022-10-25T08:44:36.224Z,7058
2022-10-25T08:45:50.475Z,3189
2022-10-25T08:47:04.694Z,2230
2022-10-25T08:48:18.983Z,2333
2022-10-25T08:50:47.563Z,1904
2022-10-25T08:52:01.842Z,2389
2022-10-25T08:53:16.139Z,1884
2022-10-25T08:54:30.418Z,1302
2022-10-25T08:55:43.745Z,1174
2022-10-25T08:56:58.000Z,2290
2022-10-25T08:58:11.337Z,2800
2022-10-25T08:59:25.546Z,2372
2022-10-25T09:00:39.848Z,5426
2022-10-25T09:01:54.103Z,3479
2022-10-25T09:03:08.326Z,2619
2022-10-25T09:04:22.554Z,12414
2022-10-25T09:05:36.781Z,15845
2022-10-25T09:06:51.074Z,10084
2022-10-25T09:08:05.311Z,5789
2022-10-25T09:09:19.550Z,5713
2022-10-25T09:10:33.763Z,11446
2022-10-25T09:11:47.998Z,4273
2022-10-25T09:13:02.305Z,14832
2022-10-25T09:14:16.542Z,11152
2022-10-25T09:15:30.756Z,12811
2022-10-25T09:16:44.989Z,13687
2022-10-25T09:17:59.211Z,14353
2022-10-25T09:19:13.513Z,16668
2022-10-25T09:20:27.752Z,11951
2022-10-25T09:21:41.986Z,10255
2022-10-25T09:22:56.200Z,10355
2022-10-25T09:24:10.430Z,7871
2022-10-25T09:25:24.738Z,7933
2022-10-25T09:26:38.978Z,7150
2022-10-25T09:27:53.211Z,6798
2022-10-25T09:29:07.492Z,7671
2022-10-25T09:30:20.825Z,7761
2022-10-25T09:31:35.097Z,6345
2022-10-25T09:32:48.412Z,6972
2022-10-25T09:34:02.624Z,8371
2022-10-25T09:35:16.928Z,5988
2022-10-25T09:36:31.169Z,5433
2022-10-25T09:37:45.390Z,5252
2022-10-25T09:38:59.621Z,4808
2022-10-25T09:40:13.857Z,4606
2022-10-25T09:41:28.156Z,4171
2022-10-25T09:42:42.388Z,3269
2022-10-25T09:43:56.610Z,2798
2022-10-25T09:45:10.845Z,2262
2022-10-25T09:46:25.073Z,1732
2022-10-25T09:47:39.370Z,1422
2022-10-25T09:48:53.618Z,1855
2022-10-25T09:50:07.835Z,2248
2022-10-25T09:51:22.069Z,2281
2022-10-25T09:52:36.295Z,2478
2022-10-25T09:53:50.582Z,2333
2022-10-25T09:55:04.820Z,2106
2022-10-25T09:56:19.060Z,2357
2022-10-25T09:57:33.278Z,3398
2022-10-25T09:58:47.519Z,4915
2022-10-25T10:00:01.818Z,3892
2022-10-25T10:01:16.050Z,5131
2022-10-25T10:02:30.272Z,4844
2022-10-25T10:03:44.562Z,4716
2022-10-25T10:04:57.851Z,4640
2022-10-25T10:06:12.094Z,3311
2022-10-25T10:07:26.319Z,4224
2022-10-25T10:08:40.541Z,6716
2022-10-25T10:09:54.770Z,1509
2022-10-25T10:11:09.080Z,1564
2022-10-25T10:12:23.322Z,1859
2022-10-25T10:13:37.550Z,2804
2022-10-25T10:14:51.765Z,2645
2022-10-25T10:16:06.003Z,2438
2022-10-25T10:17:20.288Z,6134
2022-10-25T10:18:34.535Z,74282
2022-10-25T10:19:48.758Z,6416
2022-10-25T10:21:03.000Z,8880
2022-10-25T10:22:17.218Z,5747
2022-10-25T10:23:31.525Z,6410
2022-10-25T10:24:45.754Z,4421
2022-10-25T10:25:59.986Z,82681
2022-10-25T10:27:14.216Z,82225
2022-10-25T10:28:28.445Z,80013
2022-10-25T10:29:42.735Z,23355
2022-10-25T10:30:56.978Z,9373
2022-10-25T10:32:11.208Z,10009
2022-10-25T10:33:25.424Z,14670
2022-10-25T10:34:39.662Z,9084
2022-10-25T10:35:54.015Z,13555
2022-10-25T10:37:08.303Z,5701
2022-10-25T10:38:22.584Z,7975
2022-10-25T10:39:35.873Z,14812
2022-10-25T10:40:50.174Z,4560
2022-10-25T10:42:04.414Z,3726
2022-10-25T10:43:18.653Z,2843
2022-10-25T10:44:32.873Z,2373
2022-10-25T10:45:47.108Z,1342
2022-10-25T10:47:01.406Z,4722
2022-10-25T10:48:15.642Z,7847
2022-10-25T10:49:29.877Z,4276
2022-10-25T10:50:44.101Z,9355
2022-10-25T10:51:58.315Z,7028
2022-10-25T10:53:12.625Z,20306
2022-10-25T10:54:26.853Z,69160
2022-10-25T10:55:41.084Z,11129
2022-10-25T10:58:09.540Z,78215
2022-10-25T10:59:23.831Z,78273
2022-10-25T11:00:38.081Z,77632
2022-10-25T11:01:52.302Z,76392
2022-10-25T11:03:06.539Z,74929
2022-10-25T11:04:20.769Z,76947
2022-10-25T11:05:35.055Z,75816
2022-10-25T11:06:49.309Z,77035
2022-10-25T11:08:03.532Z,77642
2022-10-25T11:09:17.763Z,77053
2022-10-25T11:10:32.035Z,78759
2022-10-25T11:11:46.334Z,71005
2022-10-25T11:13:00.630Z,16582
2022-10-25T11:14:13.934Z,10952
2022-10-25T11:15:28.155Z,10287
2022-10-25T11:16:42.450Z,8583
2022-10-25T11:17:56.693Z,8614
2022-10-25T11:19:10.911Z,7256
2022-10-25T11:20:25.144Z,4821
2022-10-25T11:21:39.369Z,5194
2022-10-25T11:22:53.679Z,4765
2022-10-25T11:24:07.921Z,3776
2022-10-25T11:25:22.134Z,4599
2022-10-25T11:26:36.366Z,6486
2022-10-25T11:27:50.587Z,4416
2022-10-25T11:29:04.892Z,6332
2022-10-25T11:30:19.127Z,10705
2022-10-25T11:31:33.356Z,6194
2022-10-25T11:32:47.580Z,16488
2022-10-25T11:34:01.810Z,21807
2022-10-25T11:35:16.111Z,8302
2022-10-25T11:36:30.349Z,16354
2022-10-25T11:37:44.589Z,8393
2022-10-25T11:38:58.800Z,7844
2022-10-25T11:40:13.039Z,16693
2022-10-25T11:41:27.342Z,5523
2022-10-25T11:42:41.000Z,15784
2022-10-25T11:43:55.802Z,4600
2022-10-25T11:45:10.085Z,68629
2022-10-25T11:46:23.393Z,20622
2022-10-25T11:47:37.619Z,7938
2022-10-25T11:48:51.847Z,4159
2022-10-25T11:51:20.303Z,22700
2022-10-25T11:52:34.612Z,23168
2022-10-25T11:53:48.847Z,8831
2022-10-25T11:55:03.081Z,8619
2022-10-25T11:56:17.300Z,8921
2022-10-25T11:57:31.531Z,20104
2022-10-25T11:58:45.835Z,9501
2022-10-25T12:00:00.078Z,7118
2022-10-25T12:01:14.302Z,6574
2022-10-25T12:02:28.514Z,12172
2022-10-25T12:03:42.740Z,8939
2022-10-25T12:04:57.050Z,6273
2022-10-25T12:06:11.282Z,8113
2022-10-25T12:07:25.510Z,4839
2022-10-25T12:08:39.753Z,4070
2022-10-25T12:09:53.976Z,3806
2022-10-25T12:11:08.271Z,6325
2022-10-25T12:13:36.735Z,5204
2022-10-25T12:14:50.965Z,7397
2022-10-25T12:16:05.199Z,7623
2022-10-25T12:17:19.544Z,6746
2022-10-25T12:18:33.831Z,5651
2022-10-25T12:19:47.181Z,7899
2022-10-25T12:21:00.516Z,7324
2022-10-25T12:22:14.799Z,19589
2022-10-25T12:23:29.080Z,17617
2022-10-25T12:24:42.376Z,17039
2022-10-25T12:25:56.677Z,10028
2022-10-25T12:27:10.929Z,15551
2022-10-25T12:28:25.141Z,16375
2022-10-25T12:29:39.364Z,15375
2022-10-25T12:30:53.604Z,15840
2022-10-25T12:32:07.899Z,15736
2022-10-25T12:33:22.138Z,13505
2022-10-25T12:34:36.370Z,5657
2022-10-25T12:35:50.597Z,10786
2022-10-25T12:37:04.830Z,7018
2022-10-25T12:39:33.372Z,6420
2022-10-25T12:40:47.584Z,9820
2022-10-25T12:42:01.819Z,5109
2022-10-25T12:43:16.050Z,8143
2022-10-25T12:44:30.334Z,6803
2022-10-25T12:45:44.578Z,6350
2022-10-25T12:46:58.810Z,6126
2022-10-25T12:48:13.044Z,5915
2022-10-25T12:49:27.267Z,5922
2022-10-25T12:50:41.563Z,5771
2022-10-25T12:51:55.803Z,5640
2022-10-25T12:53:10.040Z,5501
2022-10-25T12:54:24.252Z,5261
2022-10-25T12:55:38.551Z,5036
2022-10-25T12:56:52.843Z,5047
2022-10-25T12:58:07.127Z,5064
2022-10-25T12:59:20.422Z,5043
2022-10-25T13:00:34.649Z,4911
2022-10-25T13:01:48.944Z,4814
2022-10-25T13:03:03.198Z,4363
2022-10-25T13:04:17.418Z,6342
2022-10-25T13:05:31.637Z,5292
2022-10-25T13:06:45.863Z,4922
2022-10-25T13:08:00.167Z,5207
2022-10-25T13:09:14.398Z,5346
2022-10-25T13:10:28.626Z,5804
2022-10-25T13:11:42.857Z,4781
2022-10-25T13:14:11.393Z,4760
2022-10-25T13:15:25.626Z,5947
2022-10-25T13:16:39.853Z,5555
2022-10-25T13:17:54.077Z,7101
2022-10-25T13:19:08.303Z,8952
2022-10-25T13:20:22.609Z,4433
2022-10-25T13:21:36.841Z,3636
2022-10-25T13:24:05.290Z,2528
2022-10-25T13:25:19.534Z,2452
2022-10-25T13:26:33.833Z,2577
2022-10-25T13:27:48.074Z,3150
2022-10-25T13:29:02.287Z,7035
2022-10-25T13:30:16.577Z,4010
2022-10-25T13:31:30.861Z,4094
2022-10-25T13:32:45.157Z,4044
2022-10-25T13:33:59.440Z,4760
2022-10-25T13:35:12.799Z,4677
2022-10-25T13:36:26.122Z,4580
2022-10-25T13:37:40.404Z,4380
2022-10-25T13:38:54.699Z,5414
2022-10-25T13:40:07.983Z,7993
2022-10-25T13:41:22.282Z,6453
2022-10-25T13:42:36.540Z,4770
2022-10-25T13:43:50.748Z,5270
2022-10-25T13:45:04.994Z,6206
2022-10-25T13:46:19.206Z,6541
2022-10-25T13:47:33.518Z,4998
2022-10-25T13:48:47.746Z,3647
2022-10-25T13:50:01.983Z,2807
2022-10-25T13:51:16.206Z,2810
2022-10-25T13:52:30.439Z,2969
2022-10-25T13:53:44.730Z,2928
2022-10-25T13:54:58.970Z,2707
2022-10-25T13:56:13.205Z,2574
2022-10-25T13:57:27.415Z,2425
2022-10-25T13:58:41.644Z,2395
2022-10-25T13:59:55.956Z,2181
2022-10-25T14:01:10.198Z,2186
2022-10-25T14:02:24.419Z,2019
2022-10-25T14:03:38.635Z,1728
2022-10-25T14:04:52.863Z,1687
2022-10-25T14:06:07.169Z,1669
2022-10-25T14:07:21.418Z,1882
2022-10-25T14:08:35.640Z,1933
2022-10-25T14:09:49.862Z,1802
2022-10-25T14:11:04.157Z,1760
2022-10-25T14:12:18.455Z,1789
2022-10-25T14:13:32.731Z,1645
2022-10-25T14:14:46.060Z,1478
2022-10-25T14:16:00.352Z,1361
2022-10-25T14:17:14.651Z,1329
2022-10-25T14:18:28.927Z,1347
2022-10-25T14:19:42.228Z,1529
2022-10-25T14:20:56.443Z,1792
2022-10-25T14:22:10.744Z,1622
2022-10-25T14:23:24.984Z,1396
2022-10-25T14:24:39.216Z,1183
2022-10-25T14:27:07.672Z,884
2022-10-25T14:28:21.972Z,713
2022-10-25T14:29:36.203Z,954
2022-10-25T14:30:50.440Z,1137
2022-10-25T14:32:04.672Z,1591
2022-10-25T14:33:18.892Z,1909
2022-10-25T14:34:33.193Z,1759
2022-10-25T14:35:47.435Z,1246
2022-10-25T14:37:01.651Z,1002
2022-10-25T14:38:15.888Z,1189
2022-10-25T14:39:30.104Z,1328
2022-10-25T14:40:44.415Z,1655
2022-10-25T14:41:58.641Z,2201
2022-10-25T14:43:12.869Z,3083
2022-10-25T14:44:27.096Z,2109
2022-10-25T14:45:41.330Z,1936
2022-10-25T14:46:55.622Z,1812
2022-10-25T14:48:09.867Z,1784
2022-10-25T14:49:24.100Z,1749
2022-10-25T14:50:38.387Z,1751
2022-10-25T14:51:51.683Z,1701
2022-10-25T14:53:05.916Z,1662
2022-10-25T14:54:20.153Z,1672
2022-10-25T14:55:34.371Z,1792
2022-10-25T14:56:48.590Z,1898
2022-10-25T14:58:02.888Z,1704
2022-10-25T14:59:17.130Z,1740
2022-10-25T15:00:31.358Z,1737
2022-10-25T15:01:45.592Z,1662
2022-10-25T15:02:59.819Z,1657
2022-10-25T15:04:14.109Z,1595
2022-10-25T15:05:28.357Z,1573
2022-10-25T15:06:42.581Z,1542
2022-10-25T15:07:56.804Z,1509
2022-10-25T15:09:11.044Z,1482
2022-10-25T15:10:25.331Z,1493
2022-10-25T15:11:39.581Z,1462
2022-10-25T15:12:53.793Z,1418
2022-10-25T15:14:08.035Z,1421
2022-10-25T15:15:22.261Z,1417
2022-10-25T15:16:36.550Z,1381
2022-10-25T15:17:50.788Z,1352
2022-10-25T15:19:05.029Z,1306
2022-10-25T15:20:19.242Z,1278
2022-10-25T15:21:33.477Z,1258
2022-10-25T15:22:47.839Z,1248
2022-10-25T15:24:02.116Z,1189
2022-10-25T15:25:15.427Z,1126
2022-10-25T15:26:29.652Z,1043
2022-10-25T15:27:43.942Z,992
2022-10-25T15:28:58.191Z,956
2022-10-25T15:30:12.403Z,920
2022-10-25T15:31:26.637Z,1028
2022-10-25T15:32:40.867Z,1040
2022-10-25T15:33:55.168Z,1022
2022-10-25T15:35:09.415Z,889
2022-10-25T15:36:23.626Z,943
2022-10-25T15:37:37.853Z,897
2022-10-25T15:38:52.089Z,883
2022-10-25T15:40:06.387Z,836
2022-10-25T15:41:20.635Z,793
2022-10-25T15:42:34.856Z,746
2022-10-25T15:43:49.079Z,706
2022-10-25T15:45:03.311Z,688
2022-10-25T15:46:17.615Z,646
2022-10-25T15:47:31.844Z,613
2022-10-25T15:48:46.067Z,579
2022-10-25T15:51:14.535Z,530
2022-10-25T15:52:28.825Z,490
2022-10-25T15:53:43.067Z,463
2022-10-25T15:54:57.297Z,423
2022-10-25T15:56:11.571Z,392
2022-10-25T15:57:24.907Z,384
2022-10-25T15:58:39.194Z,346
2022-10-25T15:59:53.470Z,322
2022-10-25T16:01:06.774Z,308
2022-10-25T16:02:21.072Z,277
2022-10-25T16:03:35.321Z,257
2022-10-25T16:04:49.547Z,237
2022-10-25T16:06:03.760Z,213
2022-10-25T16:07:17.988Z,209
2022-10-25T16:08:32.288Z,188
2022-10-25T16:09:46.545Z,173
2022-10-25T16:11:00.772Z,148
2022-10-25T16:13:29.206Z,129
2022-10-25T16:14:43.524Z,116
2022-10-25T16:15:57.764Z,99
2022-10-25T16:17:11.984Z,87
2022-10-25T16:18:26.211Z,76
2022-10-25T16:19:40.440Z,72
2022-10-25T16:20:54.000Z,59
2022-10-25T16:22:08.973Z,49
2022-10-25T16:23:23.200Z,42
2022-10-25T16:24:37.428Z,37
2022-10-25T16:25:51.662Z,27
2022-10-25T16:27:05.947Z,24
2022-10-25T16:28:20.199Z,26
2022-10-25T16:29:34.433Z,17
2022-10-25T16:30:48.658Z,13
2022-10-25T16:32:02.938Z,13
2022-10-25T16:33:17.240Z,10
2022-10-25T16:34:31.521Z,6
2022-10-25T16:35:44.805Z,5
2022-10-25T16:36:59.041Z,4
2022-10-25T16:39:27.575Z,1
2022-10-25T16:40:41.808Z,3
2022-10-25T16:41:56.024Z,2
2022-10-25T16:43:10.310Z,0
2022-10-25T16:44:24.725Z,0
2022-10-25T16:45:38.967Z,1
2022-10-25T16:46:53.180Z,1
2022-10-25T16:49:21.630Z,1
2022-10-25T16:50:35.932Z,1
2022-10-25T16:51:50.230Z,0
2022-10-25T16:53:04.520Z,0
2022-10-25T16:54:18.788Z,0
2022-10-25T16:55:33.205Z,0
2022-10-25T16:56:47.527Z,0
2022-10-25T16:58:01.800Z,0
2022-10-25T16:59:16.078Z,0
2022-10-25T17:00:30.484Z,0
2022-10-25T17:01:44.808Z,0
2022-10-25T17:02:59.098Z,0
2022-10-25T17:04:13.386Z,0
2022-10-25T17:05:27.781Z,0
2022-10-25T17:06:42.171Z,0
2022-10-25T17:09:09.796Z,0
2022-10-25T17:10:24.213Z,0
2022-10-25T17:11:38.535Z,0
2022-10-25T17:12:52.800Z,0
2022-10-25T17:14:07.092Z,0
2022-10-25T17:15:21.498Z,0
2022-10-25T17:16:35.822Z,0
2022-10-25T17:17:50.091Z,0
2022-10-25T17:19:04.386Z,0
2022-10-25T17:20:18.788Z,0
2022-10-25T17:21:33.106Z,0
2022-10-25T17:22:47.385Z,0
2022-10-25T17:24:01.675Z,0
2022-10-25T17:25:16.080Z,0
2022-10-25T17:26:30.410Z,0
2022-10-25T17:27:44.679Z,0
2022-10-25T17:28:58.957Z,0
2022-10-25T17:30:13.380Z,0
2022-10-25T17:31:27.696Z,0
2022-10-25T17:32:41.985Z,0
2022-10-25T17:33:56.264Z,0
2022-10-25T17:36:24.988Z,0
2022-10-25T17:37:39.260Z,0
2022-10-25T17:38:53.605Z,0
2022-10-25T17:40:08.020Z,0
2022-10-25T17:41:22.343Z,0
2022-10-25T17:42:35.700Z,0
2022-10-25T17:43:49.984Z,0
2022-10-25T17:45:04.380Z,0
2022-10-25T17:46:18.704Z,0
2022-10-25T17:47:33.003Z,0
2022-10-25T17:48:47.264Z,0
2022-10-25T17:50:01.682Z,0
2022-10-25T17:51:16.004Z,0
2022-10-25T17:53:44.574Z,0
2022-10-25T17:54:58.973Z,0
2022-10-25T17:57:27.572Z,0
2022-10-25T17:58:41.864Z,0
2022-10-25T17:59:56.267Z,0
2022-10-25T18:01:10.592Z,0
2022-10-25T18:02:24.870Z,0
2022-10-25T18:03:39.156Z,0
2022-10-25T18:04:53.562Z,0
2022-10-25T18:06:07.887Z,0
2022-10-25T18:07:22.152Z,0
2022-10-25T18:09:50.857Z,0
2022-10-25T18:11:05.175Z,0
2022-10-25T18:12:19.454Z,0
2022-10-25T18:13:33.788Z,0
2022-10-25T18:14:48.199Z,0
2022-10-25T18:16:02.528Z,0
2022-10-25T18:17:15.926Z,0
2022-10-25T18:18:30.255Z,0